Alamo Heights, Texas
Current Conditions -  °F | °C
As of 6:51 AM on Friday 24 Oct 2014 (Local Time) from KSAT Reporting Station
Clear Clear  
Wind Chill: 62°   Ceiling: Unl
Heat Index: 62°   Visibility: 10mi
Dew Point: 57°   Wind: 3mph
Humidity: 84%   Direction: 310°NW
Pressure: 30.13"   Gusts: NA
Location:  29.4797°N, 98.4508°W
Report Text: KSAT 241151Z 31003KT 10SM CLR 17/14 A3013 RMK AO2 SLP189 T01670139 10206 20156 53001 $
Loading
Personal Weather Stations






























Interactive Weather Map
Tropical Storm Tracking
New forecast layout! Learn more

10-Day Weather Forecast

Advertisements
Track Severe Weather on mobile